Time;durP1;ratioP1;P1;durP2;ratioP2;P2;SDS_P1;SDS_P2;PMS_P1;PMS_P2;Temp;Humidity;BMP_temperature;BMP_pressure;BME280_temperature;BME280_humidity;BME280_pressure;Samples;Min_cycle;Max_cycle;Signal;HPM_P1;HPM_P2
2023/09/10 00:00:36;;;;;;;13.03;11.73;;;27.70;54.10;;;;;;5002762;28;20671;-48
2023/09/10 00:03:02;;;;;;;10.10;9.07;;;27.70;54.30;;;;;;5007362;28;20352;-45
2023/09/10 00:05:30;;;;;;;14.47;10.30;;;27.70;54.50;;;;;;4991133;28;20535;-44
2023/09/10 00:07:55;;;;;;;10.80;9.83;;;27.70;54.60;;;;;;4998866;28;20222;-46
2023/09/10 00:10:21;;;;;;;10.33;9.23;;;27.70;54.30;;;;;;5010827;28;21145;-44
2023/09/10 00:12:46;;;;;;;11.67;10.77;;;27.60;54.10;;;;;;5006229;28;20198;-44
2023/09/10 00:15:12;;;;;;;10.67;9.67;;;27.70;54.30;;;;;;4995542;28;20618;-46
2023/09/10 00:17:37;;;;;;;11.73;10.43;;;27.70;54.30;;;;;;4999588;28;20252;-44
2023/09/10 00:20:05;;;;;;;13.10;12.00;;;27.70;54.20;;;;;;5004175;28;20233;-44
2023/09/10 00:22:31;;;;;;;11.60;10.40;;;27.70;54.10;;;;;;4997723;28;20268;-44
2023/09/10 00:24:57;;;;;;;12.63;11.47;;;27.60;54.10;;;;;;5007641;28;20451;-46
2023/09/10 00:27:23;;;;;;;11.33;10.33;;;27.60;54.20;;;;;;5008649;28;20484;-44
2023/09/10 00:29:48;;;;;;;13.63;10.80;;;27.50;54.40;;;;;;5007042;28;20244;-45
2023/09/10 00:32:14;;;;;;;11.87;10.70;;;27.40;54.50;;;;;;5008191;28;20229;-44
2023/09/10 00:34:39;;;;;;;11.70;10.50;;;27.30;54.50;;;;;;5011654;28;20273;-47
2023/09/10 00:37:05;;;;;;;11.07;9.97;;;27.20;54.80;;;;;;5008993;28;20576;-44
2023/09/10 00:39:30;;;;;;;13.57;10.67;;;27.20;55.20;;;;;;5010184;28;20197;-45
2023/09/10 00:41:56;;;;;;;10.70;9.80;;;27.20;55.30;;;;;;5012018;28;20198;-44
2023/09/10 00:44:23;;;;;;;11.83;10.83;;;27.20;55.20;;;;;;4998574;28;20198;-44
2023/09/10 00:46:50;;;;;;;11.23;10.13;;;27.30;55.10;;;;;;4997851;28;20669;-44
2023/09/10 00:49:16;;;;;;;11.73;10.47;;;27.30;55.10;;;;;;5011440;28;20991;-44
2023/09/10 00:51:42;;;;;;;11.40;9.93;;;27.30;55.00;;;;;;5008666;28;20550;-46
2023/09/10 00:54:08;;;;;;;10.13;9.33;;;27.30;55.00;;;;;;5005161;28;20205;-44
2023/09/10 00:56:33;;;;;;;13.83;12.50;;;27.30;54.80;;;;;;5004482;28;20445;-44
2023/09/10 00:58:59;;;;;;;11.43;10.30;;;27.30;54.90;;;;;;4997467;28;20205;-46
2023/09/10 01:01:25;;;;;;;11.20;10.10;;;27.30;54.90;;;;;;5009404;28;20213;-46
2023/09/10 01:03:51;;;;;;;10.60;9.53;;;27.30;54.90;;;;;;5005364;28;20198;-47
2023/09/10 01:06:17;;;;;;;11.87;10.53;;;27.30;54.70;;;;;;5001504;28;20445;-45
2023/09/10 01:08:42;;;;;;;12.80;10.80;;;27.20;54.70;;;;;;5010362;28;20360;-48
2023/09/10 01:11:19;;;;;;;11.37;10.17;;;27.20;54.90;;;;;;5004761;28;20239;-44
2023/09/10 01:14:19;;;;;;;12.53;10.53;;;27.30;55.00;;;;;;5008209;28;20603;-44
2023/09/10 01:16:56;;;;;;;10.47;9.47;;;27.30;54.90;;;;;;5008253;28;20475;-44
2023/09/10 01:19:31;;;;;;;13.30;10.70;;;27.20;54.70;;;;;;5009003;28;20436;-45
2023/09/10 01:22:05;;;;;;;10.80;9.80;;;27.30;54.70;;;;;;5009368;28;20551;-44
2023/09/10 01:24:47;;;;;;;11.60;10.47;;;27.20;54.80;;;;;;5004391;28;20451;-45
2023/09/10 01:27:13;;;;;;;11.77;10.77;;;27.20;54.80;;;;;;5000569;28;21030;-44
2023/09/10 01:29:39;;;;;;;11.30;10.13;;;27.20;54.80;;;;;;5003829;28;20448;-44
2023/09/10 01:32:11;;;;;;;10.33;9.33;;;27.20;54.90;;;;;;5004470;28;20462;-44
2023/09/10 01:34:40;;;;;;;10.97;9.87;;;27.20;54.70;;;;;;5003527;28;20197;-46
2023/09/10 01:37:25;;;;;;;11.63;10.43;;;27.20;55.50;;;;;;5010594;28;20476;-44
2023/09/10 01:39:53;;;;;;;12.27;10.40;;;27.20;54.80;;;;;;5002409;28;22553;-47
2023/09/10 01:42:21;;;;;;;10.93;9.70;;;27.10;55.10;;;;;;5000596;28;20452;-44
2023/09/10 01:44:48;;;;;;;11.70;10.60;;;27.10;55.20;;;;;;5005697;28;20524;-44
2023/09/10 01:47:13;;;;;;;10.50;9.43;;;27.10;55.00;;;;;;5006034;28;20472;-45
2023/09/10 01:49:39;;;;;;;10.73;9.93;;;27.10;55.00;;;;;;5012955;28;20437;-46
2023/09/10 01:52:05;;;;;;;11.10;10.10;;;27.10;55.00;;;;;;5004455;28;20362;-44
2023/09/10 01:54:31;;;;;;;10.60;9.70;;;27.20;54.80;;;;;;5005906;28;20564;-44
2023/09/10 01:56:56;;;;;;;10.77;9.77;;;27.20;54.80;;;;;;5003081;28;20441;-44
2023/09/10 01:59:22;;;;;;;12.13;9.63;;;27.10;55.00;;;;;;5004818;28;20670;-44
2023/09/10 02:01:47;;;;;;;10.60;9.03;;;26.80;55.60;;;;;;5002768;28;20760;-43
2023/09/10 02:04:13;;;;;;;10.87;9.73;;;26.70;56.10;;;;;;5010675;28;20277;-46
2023/09/10 02:06:38;;;;;;;10.80;9.70;;;26.70;56.00;;;;;;5011638;28;20692;-45
2023/09/10 02:09:04;;;;;;;13.43;9.47;;;26.80;56.00;;;;;;5008878;28;20202;-44
2023/09/10 02:11:29;;;;;;;11.10;10.20;;;26.80;55.80;;;;;;5002383;28;20194;-44
2023/09/10 02:13:55;;;;;;;11.90;10.07;;;26.80;55.60;;;;;;5011668;28;20786;-44
2023/09/10 02:16:21;;;;;;;10.67;9.70;;;26.80;55.30;;;;;;4992352;28;20194;-46
2023/09/10 02:18:46;;;;;;;11.50;10.47;;;26.90;55.20;;;;;;5008559;28;20284;-44
2023/09/10 02:21:12;;;;;;;11.27;10.23;;;26.90;55.40;;;;;;5009017;28;20197;-45
2023/09/10 02:23:39;;;;;;;10.77;9.70;;;26.90;55.40;;;;;;5010505;28;20630;-49
2023/09/10 02:26:04;;;;;;;10.37;9.37;;;26.90;55.20;;;;;;5008962;28;20182;-44
2023/09/10 02:28:30;;;;;;;11.03;10.13;;;26.90;55.20;;;;;;5001618;28;21257;-47
2023/09/10 02:30:55;;;;;;;10.17;9.27;;;26.90;55.10;;;;;;5008411;28;20252;-45
2023/09/10 02:33:21;;;;;;;10.10;9.10;;;26.90;55.20;;;;;;5003838;28;20662;-44
2023/09/10 02:35:47;;;;;;;11.53;10.40;;;26.70;55.60;;;;;;5010282;28;20251;-47
2023/09/10 02:38:12;;;;;;;11.90;9.97;;;26.60;55.70;;;;;;5010123;28;20210;-44
2023/09/10 02:40:38;;;;;;;10.87;9.73;;;26.20;56.90;;;;;;5013211;28;20186;-45
2023/09/10 02:43:03;;;;;;;11.37;10.30;;;26.10;57.00;;;;;;5013249;28;20717;-46
2023/09/10 02:45:29;;;;;;;12.20;11.10;;;26.10;57.20;;;;;;5010808;28;20193;-45
2023/09/10 02:47:55;;;;;;;11.73;9.83;;;26.10;57.30;;;;;;5008072;28;20320;-46
2023/09/10 02:50:20;;;;;;;10.53;9.40;;;26.10;57.40;;;;;;5010092;28;20582;-44
2023/09/10 02:52:46;;;;;;;10.67;9.57;;;26.20;57.10;;;;;;5007233;28;20201;-44
2023/09/10 02:55:11;;;;;;;10.27;9.27;;;26.20;56.70;;;;;;4998939;28;20321;-44
2023/09/10 02:57:37;;;;;;;10.87;9.77;;;26.30;56.60;;;;;;5002675;28;20269;-47
2023/09/10 03:00:05;;;;;;;10.73;9.73;;;26.40;56.30;;;;;;5008108;28;20285;-45
2023/09/10 03:02:31;;;;;;;10.80;9.30;;;26.40;56.40;;;;;;5006842;28;20277;-45
2023/09/10 03:04:56;;;;;;;10.03;9.13;;;26.40;56.00;;;;;;5007315;28;20862;-48
2023/09/10 03:07:22;;;;;;;10.40;9.40;;;26.40;56.20;;;;;;5009627;28;20229;-44
2023/09/10 03:09:50;;;;;;;10.40;9.40;;;26.40;56.00;;;;;;5008685;28;20613;-44
2023/09/10 03:12:20;;;;;;;11.13;9.40;;;26.40;56.30;;;;;;5006494;28;20209;-44
2023/09/10 03:14:46;;;;;;;12.67;10.33;;;26.40;56.10;;;;;;5005807;28;20480;-44
2023/09/10 03:17:12;;;;;;;11.20;9.70;;;26.40;56.20;;;;;;5007745;28;20896;-44
2023/09/10 03:19:38;;;;;;;10.70;9.70;;;26.30;56.50;;;;;;5006438;28;20245;-45
2023/09/10 03:22:03;;;;;;;11.37;8.90;;;26.30;56.50;;;;;;5002442;28;20925;-48
2023/09/10 03:24:32;;;;;;;15.73;10.27;;;26.30;56.10;;;;;;5003674;28;20213;-47
2023/09/10 03:26:58;;;;;;;16.67;9.10;;;26.40;56.20;;;;;;5001986;28;20293;-44
2023/09/10 03:29:23;;;;;;;11.47;10.27;;;26.30;56.20;;;;;;5007817;28;20980;-47
2023/09/10 03:31:49;;;;;;;10.27;9.47;;;26.30;56.00;;;;;;5001276;28;20228;-47
2023/09/10 03:34:15;;;;;;;11.20;8.63;;;26.40;56.10;;;;;;5004578;28;20197;-45
2023/09/10 03:36:40;;;;;;;12.83;10.37;;;26.40;55.80;;;;;;5003347;28;20949;-48
2023/09/10 03:39:06;;;;;;;9.87;8.97;;;26.50;55.80;;;;;;5004540;28;20221;-48
2023/09/10 03:41:31;;;;;;;9.17;8.33;;;26.50;55.80;;;;;;5004618;28;22343;-44
2023/09/10 03:43:58;;;;;;;12.10;9.90;;;26.40;55.80;;;;;;5004337;28;20198;-44
2023/09/10 03:46:23;;;;;;;10.13;9.33;;;26.40;55.90;;;;;;5006483;28;20198;-43
2023/09/10 03:48:49;;;;;;;11.23;10.07;;;26.40;55.80;;;;;;5006354;28;20994;-44
2023/09/10 03:51:15;;;;;;;11.67;10.67;;;26.40;55.80;;;;;;5002370;28;20193;-44
2023/09/10 03:53:41;;;;;;;10.37;9.50;;;26.40;56.00;;;;;;5004219;28;21215;-44
2023/09/10 03:56:06;;;;;;;10.60;9.53;;;26.40;55.80;;;;;;5002067;28;20452;-44
2023/09/10 03:58:32;;;;;;;9.60;8.70;;;26.40;55.80;;;;;;5008215;28;20240;-44
2023/09/10 04:00:58;;;;;;;11.37;10.17;;;26.40;55.60;;;;;;5005387;28;20625;-44
2023/09/10 04:03:25;;;;;;;10.73;9.60;;;26.50;55.60;;;;;;5007024;28;20306;-46
2023/09/10 04:05:52;;;;;;;9.90;8.90;;;26.50;55.40;;;;;;5012723;28;20451;-44
2023/09/10 04:08:18;;;;;;;10.47;8.67;;;26.50;55.50;;;;;;5010414;28;20532;-44
2023/09/10 04:10:43;;;;;;;10.60;9.63;;;26.40;55.50;;;;;;5003884;28;20465;-45
2023/09/10 04:13:09;;;;;;;10.40;9.50;;;26.40;55.40;;;;;;5000294;28;20205;-46
2023/09/10 04:15:35;;;;;;;10.63;9.63;;;26.50;55.20;;;;;;5002489;28;20612;-44
2023/09/10 04:18:02;;;;;;;10.90;9.90;;;26.40;55.10;;;;;;5010127;28;20197;-44
2023/09/10 04:20:28;;;;;;;10.53;9.57;;;26.40;55.40;;;;;;5007129;28;20213;-43
2023/09/10 04:22:53;;;;;;;10.40;9.47;;;26.40;55.60;;;;;;5011754;28;20429;-44
2023/09/10 04:25:19;;;;;;;9.80;8.90;;;26.40;55.50;;;;;;5008379;28;20331;-44
2023/09/10 04:27:44;;;;;;;13.90;10.77;;;26.40;55.40;;;;;;5001756;28;20233;-44
2023/09/10 04:30:10;;;;;;;14.60;9.23;;;26.30;55.60;;;;;;5007276;28;20186;-44
2023/09/10 04:32:36;;;;;;;10.87;9.83;;;26.30;55.60;;;;;;5009805;28;20679;-44
2023/09/10 04:35:04;;;;;;;10.60;9.50;;;26.30;55.60;;;;;;5010521;28;20190;-44
2023/09/10 04:37:31;;;;;;;10.73;9.63;;;26.20;55.80;;;;;;5010739;28;20205;-48
2023/09/10 04:39:56;;;;;;;10.80;9.90;;;26.20;55.80;;;;;;5000474;28;20464;-44
2023/09/10 04:42:22;;;;;;;10.93;9.83;;;26.10;55.80;;;;;;5015825;28;20437;-44
2023/09/10 04:44:49;;;;;;;9.80;8.97;;;25.90;56.40;;;;;;5014367;28;20194;-44
2023/09/10 04:47:15;;;;;;;9.93;9.03;;;25.90;56.50;;;;;;5010222;28;20222;-43
2023/09/10 04:49:40;;;;;;;11.47;10.47;;;25.90;56.20;;;;;;5015235;28;20959;-44
2023/09/10 04:52:06;;;;;;;11.67;10.10;;;25.90;55.80;;;;;;5014169;28;20436;-44
2023/09/10 04:54:32;;;;;;;10.50;9.50;;;25.90;55.70;;;;;;5003450;28;20206;-44
2023/09/10 04:56:57;;;;;;;11.47;9.20;;;25.90;55.90;;;;;;5008391;28;20194;-44
2023/09/10 04:59:24;;;;;;;10.80;9.57;;;25.90;56.30;;;;;;5005500;28;20207;-44
2023/09/10 05:01:49;;;;;;;10.00;8.97;;;25.90;56.00;;;;;;5004368;28;20484;-46
2023/09/10 05:04:15;;;;;;;12.33;10.20;;;25.80;56.40;;;;;;5012213;28;20197;-45
2023/09/10 05:06:40;;;;;;;11.30;9.23;;;25.80;56.60;;;;;;5001496;28;20260;-44
2023/09/10 05:09:08;;;;;;;9.83;9.03;;;25.90;56.40;;;;;;5004949;28;20684;-44
2023/09/10 05:11:34;;;;;;;11.17;9.97;;;26.00;56.10;;;;;;5003301;28;20292;-46
2023/09/10 05:13:59;;;;;;;10.43;9.50;;;26.00;55.80;;;;;;5004297;28;20958;-44
2023/09/10 05:16:25;;;;;;;10.80;9.70;;;25.60;56.70;;;;;;5005229;28;20206;-44
2023/09/10 05:18:50;;;;;;;11.20;10.10;;;25.50;57.20;;;;;;5011173;28;20223;-47
2023/09/10 05:21:16;;;;;;;9.53;8.70;;;25.50;57.20;;;;;;5005301;28;20625;-47
2023/09/10 05:23:43;;;;;;;10.60;9.70;;;25.60;57.10;;;;;;5003535;28;20269;-44
2023/09/10 05:26:09;;;;;;;11.30;8.60;;;25.80;56.80;;;;;;5008175;28;20557;-43
2023/09/10 05:28:34;;;;;;;10.03;9.10;;;25.90;56.50;;;;;;5010052;28;20491;-47
2023/09/10 05:31:04;;;;;;;10.00;9.10;;;25.90;56.20;;;;;;5003998;28;20200;-44
2023/09/10 05:33:30;;;;;;;12.43;9.97;;;25.90;55.90;;;;;;5011113;28;20202;-43
2023/09/10 05:35:59;;;;;;;9.77;8.97;;;25.80;56.80;;;;;;5013985;28;20515;-44
2023/09/10 05:38:25;;;;;;;10.93;8.67;;;25.60;56.90;;;;;;5004152;28;20609;-46
2023/09/10 05:40:51;;;;;;;10.90;9.90;;;25.60;56.90;;;;;;5004734;28;20487;-44
2023/09/10 05:43:17;;;;;;;9.30;8.40;;;25.70;56.90;;;;;;5007379;28;20502;-43
2023/09/10 05:45:45;;;;;;;11.10;10.20;;;25.40;57.30;;;;;;5015457;28;20448;-45
2023/09/10 05:48:11;;;;;;;10.50;9.57;;;25.20;57.60;;;;;;5013519;28;20999;-44
2023/09/10 05:50:39;;;;;;;9.47;8.67;;;25.10;58.20;;;;;;5005683;28;20464;-44
2023/09/10 05:53:04;;;;;;;9.90;9.00;;;25.10;58.40;;;;;;5011977;28;20202;-44
2023/09/10 05:55:30;;;;;;;11.40;9.80;;;25.30;58.10;;;;;;5012375;28;20503;-44
2023/09/10 05:57:55;;;;;;;14.17;10.07;;;25.20;58.60;;;;;;5013807;28;20269;-44
2023/09/10 06:00:24;;;;;;;10.50;9.60;;;25.00;59.00;;;;;;5003836;28;20201;-45
2023/09/10 06:02:50;;;;;;;10.77;9.50;;;24.80;59.00;;;;;;5006260;28;20573;-44
2023/09/10 06:05:16;;;;;;;10.70;9.67;;;24.90;58.90;;;;;;5008184;28;20810;-44
2023/09/10 06:07:42;;;;;;;12.13;10.63;;;25.00;58.70;;;;;;5009073;28;21055;-44
2023/09/10 06:10:09;;;;;;;11.00;9.90;;;25.20;58.60;;;;;;5010597;28;20541;-44
2023/09/10 06:12:36;;;;;;;9.63;8.63;;;25.10;58.80;;;;;;5013293;28;20508;-43
2023/09/10 06:15:04;;;;;;;11.30;9.50;;;25.10;59.00;;;;;;5005158;28;20848;-43
2023/09/10 06:17:29;;;;;;;10.93;9.90;;;25.10;59.10;;;;;;5009953;28;20540;-44
2023/09/10 06:19:55;;;;;;;12.20;8.93;;;25.20;59.10;;;;;;5006192;28;20452;-44
2023/09/10 06:22:21;;;;;;;10.37;9.37;;;25.20;59.30;;;;;;5008924;28;20202;-46
2023/09/10 06:24:46;;;;;;;11.30;10.30;;;25.20;59.20;;;;;;5008313;28;20225;-43
2023/09/10 06:27:12;;;;;;;10.30;9.27;;;25.30;59.00;;;;;;5011585;28;20237;-42
2023/09/10 06:29:37;;;;;;;10.57;9.57;;;25.50;58.80;;;;;;5012054;28;20705;-41
2023/09/10 06:32:04;;;;;;;10.50;9.50;;;25.60;58.40;;;;;;5005250;28;20743;-44
2023/09/10 06:34:30;;;;;;;11.27;10.10;;;25.70;58.20;;;;;;5008553;28;20198;-41
2023/09/10 06:36:55;;;;;;;12.50;9.50;;;25.80;57.90;;;;;;5007842;28;20511;-41
2023/09/10 06:39:21;;;;;;;10.40;9.43;;;25.90;57.70;;;;;;5004444;28;20266;-42
2023/09/10 06:41:47;;;;;;;10.47;9.63;;;25.90;57.70;;;;;;5009295;28;20197;-41
2023/09/10 06:44:12;;;;;;;11.30;10.40;;;25.90;58.00;;;;;;5010510;28;20190;-42
2023/09/10 06:46:38;;;;;;;11.37;10.27;;;25.90;58.30;;;;;;5013050;28;20198;-41
2023/09/10 06:49:03;;;;;;;11.13;10.10;;;25.90;58.80;;;;;;5008760;28;20233;-44
2023/09/10 06:51:29;;;;;;;12.20;11.20;;;25.90;57.90;;;;;;5006482;28;20229;-44
2023/09/10 06:53:55;;;;;;;10.63;9.60;;;26.00;58.10;;;;;;5004275;28;20191;-44
2023/09/10 06:56:20;;;;;;;10.87;9.87;;;26.10;58.00;;;;;;5009718;28;20190;-41
2023/09/10 06:58:47;;;;;;;11.07;10.00;;;26.10;57.90;;;;;;5013934;28;20650;-42
2023/09/10 07:01:18;;;;;;;11.40;10.40;;;26.20;58.00;;;;;;5011942;28;20225;-43
2023/09/10 07:03:44;;;;;;;14.77;10.97;;;26.30;57.80;;;;;;4999386;28;20457;-41
2023/09/10 07:06:10;;;;;;;10.63;9.70;;;26.30;57.60;;;;;;5011185;28;20445;-41
2023/09/10 07:08:36;;;;;;;11.30;10.30;;;26.40;57.50;;;;;;5013920;28;20849;-41
2023/09/10 07:11:02;;;;;;;10.93;9.93;;;26.40;57.70;;;;;;5013519;28;20226;-41
2023/09/10 07:13:29;;;;;;;10.77;9.67;;;26.30;58.30;;;;;;5011612;28;20499;-42
2023/09/10 07:15:54;;;;;;;12.70;10.90;;;26.40;57.90;;;;;;5012591;28;20197;-42
2023/09/10 07:18:20;;;;;;;11.20;9.97;;;26.50;57.60;;;;;;5012527;28;20441;-41
2023/09/10 07:20:45;;;;;;;11.97;10.67;;;26.70;57.50;;;;;;4991730;28;20284;-41
2023/09/10 07:23:11;;;;;;;10.87;9.97;;;26.70;57.50;;;;;;5011750;28;20225;-41
2023/09/10 07:25:39;;;;;;;10.90;9.90;;;26.80;57.20;;;;;;5010421;28;20217;-41
2023/09/10 07:28:05;;;;;;;11.40;10.40;;;26.90;56.80;;;;;;5011149;28;20225;-41
2023/09/10 07:30:31;;;;;;;13.43;10.83;;;26.80;56.90;;;;;;5011938;28;20448;-42
2023/09/10 07:32:56;;;;;;;11.37;10.33;;;26.90;57.00;;;;;;4994940;28;20461;-42
2023/09/10 07:35:22;;;;;;;10.10;9.30;;;26.90;56.80;;;;;;5010377;28;20204;-42
2023/09/10 07:37:47;;;;;;;11.80;10.77;;;27.00;56.70;;;;;;5010686;28;20580;-41
2023/09/10 07:40:14;;;;;;;11.30;10.30;;;27.20;57.70;;;;;;5011302;28;20205;-42
2023/09/10 07:42:40;;;;;;;11.43;10.33;;;27.20;56.90;;;;;;5008972;28;20195;-43
2023/09/10 07:45:13;;;;;;;10.40;9.40;;;27.30;57.10;;;;;;5004381;28;20456;-42
2023/09/10 07:47:40;;;;;;;11.47;10.47;;;27.40;56.10;;;;;;5009754;28;20639;-42
2023/09/10 07:50:06;;;;;;;12.10;10.93;;;27.40;56.10;;;;;;5009681;28;20456;-43
2023/09/10 07:52:31;;;;;;;10.53;9.67;;;27.50;56.00;;;;;;5008745;28;20486;-41
2023/09/10 07:54:57;;;;;;;10.70;9.80;;;27.60;55.90;;;;;;5007657;28;20216;-42
2023/09/10 07:57:24;;;;;;;12.70;10.30;;;27.70;55.80;;;;;;5010384;28;20237;-41
2023/09/10 07:59:50;;;;;;;12.10;10.90;;;27.70;55.90;;;;;;5011974;28;20206;-44
2023/09/10 08:02:16;;;;;;;14.73;10.60;;;27.80;55.50;;;;;;5011056;28;20551;-45
2023/09/10 08:04:42;;;;;;;12.63;11.40;;;27.80;55.70;;;;;;5007469;28;20194;-43
2023/09/10 08:07:09;;;;;;;11.60;10.70;;;27.90;55.50;;;;;;5006552;28;20204;-46
2023/09/10 08:09:36;;;;;;;11.80;10.70;;;28.00;54.90;;;;;;4998335;28;20485;-46
2023/09/10 08:12:02;;;;;;;11.60;10.53;;;28.10;54.70;;;;;;5009323;28;20894;-44
2023/09/10 08:14:28;;;;;;;14.80;12.43;;;28.20;54.20;;;;;;5008495;28;20536;-46
2023/09/10 08:16:53;;;;;;;12.23;11.03;;;28.30;54.00;;;;;;5007905;28;20531;-45
2023/09/10 08:19:19;;;;;;;12.90;11.80;;;28.30;53.80;;;;;;5003049;28;20193;-44
2023/09/10 08:21:45;;;;;;;11.50;10.30;;;28.40;53.80;;;;;;5007613;28;20197;-45
2023/09/10 08:24:11;;;;;;;10.90;9.80;;;28.60;54.00;;;;;;5000702;28;20198;-44
2023/09/10 08:26:36;;;;;;;12.00;10.87;;;28.70;54.10;;;;;;5003553;28;20447;-46
2023/09/10 08:29:02;;;;;;;12.50;11.37;;;28.70;53.80;;;;;;5006277;28;20260;-44
2023/09/10 08:31:27;;;;;;;13.77;10.47;;;28.60;54.10;;;;;;5007966;28;20194;-44
2023/09/10 08:33:53;;;;;;;11.53;10.53;;;28.70;54.40;;;;;;5005954;28;20734;-44
2023/09/10 08:36:19;;;;;;;11.90;10.90;;;28.70;54.00;;;;;;5007433;28;20712;-44
2023/09/10 08:38:44;;;;;;;11.60;10.50;;;28.80;53.90;;;;;;5011971;28;20197;-44
2023/09/10 08:41:33;;;;;;;12.57;11.30;;;29.00;53.40;;;;;;5003950;28;20186;-44
2023/09/10 08:44:01;;;;;;;12.10;9.80;;;29.20;53.40;;;;;;5002166;28;20198;-43
2023/09/10 08:46:31;;;;;;;12.10;11.00;;;29.30;53.10;;;;;;5008053;28;20449;-45
2023/09/10 08:48:58;;;;;;;10.77;9.67;;;29.50;53.10;;;;;;5012786;28;20480;-44
2023/09/10 08:51:24;;;;;;;10.97;9.93;;;29.60;54.10;;;;;;4999077;28;20453;-44
2023/09/10 08:53:55;;;;;;;14.30;11.00;;;29.70;52.20;;;;;;5006580;28;20475;-44
2023/09/10 08:56:21;;;;;;;14.20;10.30;;;29.80;51.30;;;;;;5003002;28;21182;-44
2023/09/10 08:58:48;;;;;;;10.90;9.90;;;29.90;51.50;;;;;;5007772;28;20441;-44
2023/09/10 09:01:14;;;;;;;13.37;9.40;;;29.90;51.20;;;;;;5005687;28;21834;-44
2023/09/10 09:03:40;;;;;;;11.93;10.20;;;30.00;51.70;;;;;;5004788;28;20481;-44
2023/09/10 09:06:06;;;;;;;11.13;10.13;;;30.20;52.00;;;;;;5003590;28;20798;-43
2023/09/10 09:08:34;;;;;;;11.10;9.63;;;30.30;51.90;;;;;;5005678;28;20225;-43
2023/09/10 09:11:03;;;;;;;11.07;10.07;;;30.40;52.00;;;;;;5009758;28;20436;-44
2023/09/10 09:13:35;;;;;;;10.23;9.23;;;30.50;51.10;;;;;;5010419;28;20457;-42
2023/09/10 09:16:03;;;;;;;11.17;9.63;;;30.50;50.50;;;;;;5009085;28;20483;-44
2023/09/10 09:18:29;;;;;;;11.30;9.43;;;30.70;50.20;;;;;;5000758;28;20445;-43
2023/09/10 09:21:01;;;;;;;10.90;10.00;;;30.70;49.40;;;;;;5007577;28;20440;-43
2023/09/10 09:23:32;;;;;;;9.80;8.90;;;30.60;49.70;;;;;;4997646;28;20436;-44
2023/09/10 09:25:58;;;;;;;9.57;8.77;;;30.70;49.60;;;;;;5009908;28;20444;-43
2023/09/10 09:28:25;;;;;;;11.20;9.63;;;30.90;50.00;;;;;;5006145;28;20542;-42
2023/09/10 09:30:52;;;;;;;9.73;8.83;;;31.10;49.00;;;;;;5013238;28;20751;-43
2023/09/10 09:33:17;;;;;;;9.30;8.50;;;31.30;48.30;;;;;;5012030;28;20429;-43
2023/09/10 09:35:45;;;;;;;10.30;8.80;;;31.50;48.20;;;;;;5007663;28;20804;-47
2023/09/10 09:38:13;;;;;;;11.10;9.40;;;31.70;47.70;;;;;;5008952;28;20205;-43
2023/09/10 09:40:39;;;;;;;10.87;9.87;;;31.90;47.40;;;;;;5005549;28;20516;-50
2023/09/10 09:43:09;;;;;;;9.87;9.00;;;31.90;47.60;;;;;;5010631;28;20888;-43
2023/09/10 09:45:39;;;;;;;9.13;8.33;;;32.00;47.10;;;;;;5011087;28;20190;-43
2023/09/10 09:48:05;;;;;;;9.10;8.20;;;32.10;46.20;;;;;;5008846;28;20842;-48
2023/09/10 09:50:31;;;;;;;10.60;9.33;;;32.20;46.80;;;;;;5006389;28;20449;-44
2023/09/10 09:52:57;;;;;;;11.00;9.07;;;32.40;46.60;;;;;;5011354;28;20936;-43
2023/09/10 09:55:23;;;;;;;10.13;9.03;;;32.60;46.90;;;;;;5007050;28;20664;-44
2023/09/10 09:57:49;;;;;;;8.70;7.90;;;32.70;47.30;;;;;;5008152;28;21838;-46
2023/09/10 10:00:16;;;;;;;9.67;8.87;;;32.90;46.30;;;;;;5006332;28;20997;-46
2023/09/10 10:02:42;;;;;;;9.07;8.27;;;33.00;45.20;;;;;;5014619;28;20563;-47
2023/09/10 10:05:08;;;;;;;10.20;9.30;;;33.20;44.50;;;;;;5011162;28;20447;-45
2023/09/10 10:07:37;;;;;;;10.10;8.03;;;33.40;43.20;;;;;;5013110;28;20496;-44
2023/09/10 10:10:07;;;;;;;11.10;8.27;;;33.40;43.30;;;;;;5013098;28;20821;-45
2023/09/10 10:12:33;;;;;;;9.07;8.33;;;33.40;44.00;;;;;;5013325;28;20541;-45
2023/09/10 10:14:59;;;;;;;8.13;7.43;;;33.60;44.00;;;;;;5002325;28;20520;-45
2023/09/10 10:17:26;;;;;;;9.93;8.70;;;33.70;44.00;;;;;;5013158;28;20197;-46
2023/09/10 10:19:52;;;;;;;9.37;8.57;;;33.80;42.70;;;;;;5014634;28;20516;-44
2023/09/10 10:22:19;;;;;;;9.13;8.43;;;34.00;42.30;;;;;;5011895;28;20437;-45
2023/09/10 10:24:45;;;;;;;8.93;8.17;;;34.00;42.10;;;;;;5004046;28;20571;-48
2023/09/10 10:27:12;;;;;;;7.93;7.17;;;34.10;41.20;;;;;;5008702;28;20967;-45
2023/09/10 10:29:38;;;;;;;9.37;8.47;;;34.20;41.30;;;;;;5011114;28;20451;-45
2023/09/10 10:32:04;;;;;;;12.27;8.60;;;34.30;41.30;;;;;;5009752;28;20441;-44
2023/09/10 10:34:41;;;;;;;9.57;7.40;;;34.40;42.20;;;;;;5013313;28;20554;-45
2023/09/10 10:37:23;;;;;;;8.00;7.40;;;34.60;41.90;;;;;;5010042;28;20200;-46
2023/09/10 10:40:16;;;;;;;9.37;8.47;;;34.90;41.90;;;;;;5003246;28;22556;-48
2023/09/10 10:43:14;;;;;;;8.17;7.47;;;35.00;40.70;;;;;;5005892;28;20448;-44
2023/09/10 10:45:40;;;;;;;12.77;8.93;;;35.20;39.10;;;;;;4983919;28;20456;-42
2023/09/10 10:48:30;;;;;;;8.57;7.50;;;35.30;39.60;;;;;;5001367;28;20484;-48
2023/09/10 10:50:58;;;;;;;8.47;7.70;;;35.30;38.80;;;;;;5008899;28;20253;-43
2023/09/10 10:53:24;;;;;;;9.07;8.37;;;35.30;39.40;;;;;;5004596;28;20463;-44
2023/09/10 10:55:56;;;;;;;8.10;7.37;;;35.60;39.50;;;;;;5002403;28;20457;-44
2023/09/10 10:58:23;;;;;;;8.27;7.53;;;35.70;38.50;;;;;;5003601;28;20531;-47
2023/09/10 11:00:50;;;;;;;8.30;7.17;;;35.80;38.20;;;;;;5006137;28;20456;-48
2023/09/10 11:03:16;;;;;;;11.63;6.87;;;36.00;38.70;;;;;;5011165;28;20468;-45
2023/09/10 11:05:57;;;;;;;8.17;7.47;;;36.10;37.90;;;;;;5013277;28;20429;-46
2023/09/10 11:08:33;;;;;;;8.70;7.97;;;36.30;37.30;;;;;;5009671;28;20492;-47
2023/09/10 11:11:01;;;;;;;8.10;7.10;;;36.50;37.90;;;;;;5004239;28;20539;-45
2023/09/10 11:13:27;;;;;;;8.37;7.67;;;36.60;36.90;;;;;;5010502;28;20448;-48
2023/09/10 11:16:05;;;;;;;7.63;6.90;;;36.70;35.90;;;;;;5011987;28;20962;-47
2023/09/10 11:18:36;;;;;;;9.60;7.30;;;36.80;35.70;;;;;;5011438;28;20193;-49
2023/09/10 11:21:07;;;;;;;9.90;7.10;;;36.80;35.40;;;;;;5013315;28;20924;-49
2023/09/10 11:23:34;;;;;;;7.27;6.63;;;36.90;36.20;;;;;;5006755;28;20524;-50
2023/09/10 11:26:14;;;;;;;7.57;6.97;;;37.00;35.30;;;;;;5012764;28;20479;-49
2023/09/10 11:28:45;;;;;;;7.33;6.63;;;37.00;35.20;;;;;;5007104;28;20550;-51
2023/09/10 11:31:38;;;;;;;11.10;7.53;;;36.90;35.10;;;;;;5011039;28;20444;-48
2023/09/10 11:36:47;;;;;;;7.83;6.40;;;37.00;35.30;;;;;;5009560;28;21044;-49
2023/09/10 11:39:14;;;;;;;9.90;6.60;;;37.10;35.30;;;;;;5009329;28;20567;-50
2023/09/10 11:41:44;;;;;;;8.97;7.30;;;37.10;35.30;;;;;;5006440;28;21146;-50
2023/09/10 11:44:10;;;;;;;7.33;6.73;;;37.10;35.30;;;;;;5010233;28;20444;-51
2023/09/10 11:46:37;;;;;;;8.57;7.63;;;37.30;35.20;;;;;;5011963;28;20417;-49
2023/09/10 11:49:03;;;;;;;8.03;7.33;;;37.30;34.80;;;;;;5010329;28;20586;-51
2023/09/10 11:51:29;;;;;;;7.97;7.27;;;37.40;34.90;;;;;;5006664;28;20475;-50
2023/09/10 11:53:55;;;;;;;8.00;7.20;;;37.60;35.60;;;;;;5008578;28;20279;-51
2023/09/10 11:56:20;;;;;;;11.03;7.10;;;37.60;35.60;;;;;;5004224;28;20712;-52
2023/09/10 11:58:46;;;;;;;7.27;6.53;;;37.60;33.90;;;;;;4996379;28;20200;-51
2023/09/10 12:01:11;;;;;;;7.50;6.80;;;37.70;33.90;;;;;;4999313;28;20194;-48
2023/09/10 12:03:41;;;;;;;8.13;7.33;;;37.70;34.70;;;;;;5001036;28;20236;-49
2023/09/10 12:06:07;;;;;;;6.80;6.13;;;37.80;33.80;;;;;;4994511;28;20214;-49
2023/09/10 12:08:33;;;;;;;6.70;6.10;;;37.90;33.30;;;;;;5007198;28;20492;-50
2023/09/10 12:11:03;;;;;;;9.60;6.70;;;38.00;33.40;;;;;;4997998;28;20280;-49
2023/09/10 12:13:29;;;;;;;7.90;6.43;;;38.00;33.30;;;;;;5008026;28;21552;-47
2023/09/10 12:15:55;;;;;;;6.63;6.13;;;38.30;33.40;;;;;;5004842;28;21255;-50
2023/09/10 12:18:22;;;;;;;7.30;6.60;;;38.40;32.30;;;;;;5011324;28;20499;-47
2023/09/10 12:20:48;;;;;;;7.10;6.50;;;38.40;31.70;;;;;;5005637;28;20440;-46
2023/09/10 12:23:14;;;;;;;8.07;7.00;;;38.50;31.90;;;;;;4998686;28;20486;-46
2023/09/10 12:25:40;;;;;;;8.37;7.67;;;38.60;31.70;;;;;;5007005;28;20436;-50
2023/09/10 12:28:09;;;;;;;8.47;7.63;;;38.60;32.30;;;;;;5007850;28;20316;-50
2023/09/10 12:30:36;;;;;;;8.43;7.63;;;38.80;32.60;;;;;;5002578;28;20641;-47
2023/09/10 12:33:02;;;;;;;6.83;6.33;;;38.90;32.00;;;;;;4998994;28;20436;-48
2023/09/10 12:35:28;;;;;;;6.90;6.30;;;38.90;32.70;;;;;;5003091;28;20456;-48
2023/09/10 12:37:54;;;;;;;6.77;6.27;;;39.00;31.90;;;;;;5009715;28;21012;-49